Time;durP1;ratioP1;P1;durP2;ratioP2;P2;SDS_P1;SDS_P2;PMS_P1;PMS_P2;Temp;Humidity;BMP_temperature;BMP_pressure;BME280_temperature;BME280_humidity;BME280_pressure;Samples;Min_cycle;Max_cycle;Signal;HPM_P1;HPM_P2
2022/08/18 00:00:51;;;;;;;;;20.00;20.00;;;;;;;;4977693;28;45498;-59
2022/08/18 00:03:18;;;;;;;;;18.00;18.00;;;;;;;;4984728;28;45998;-60
2022/08/18 00:05:43;;;;;;;;;17.67;17.67;;;;;;;;4997665;28;45546;-59
2022/08/18 00:08:09;;;;;;;;;15.67;15.67;;;;;;;;4991008;28;45515;-61
2022/08/18 00:10:34;;;;;;;;;15.33;15.33;;;;;;;;4977436;28;45580;-59
2022/08/18 00:12:59;;;;;;;;;15.67;15.67;;;;;;;;4977358;28;45363;-61
2022/08/18 00:15:25;;;;;;;;;14.67;14.00;;;;;;;;4977600;28;45564;-61
2022/08/18 00:17:50;;;;;;;;;16.00;16.00;;;;;;;;4981064;28;45434;-61
2022/08/18 00:20:20;;;;;;;;;16.33;16.00;;;;;;;;4996928;28;45576;-58
2022/08/18 00:22:46;;;;;;;;;14.67;14.67;;;;;;;;4996557;28;45447;-60
2022/08/18 00:25:12;;;;;;;;;17.67;15.67;;;;;;;;4984417;28;45443;-58
2022/08/18 00:27:40;;;;;;;;;17.33;15.33;;;;;;;;4977087;28;45388;-61
2022/08/18 00:30:06;;;;;;;;;17.33;17.33;;;;;;;;4976923;28;45627;-60
2022/08/18 00:32:33;;;;;;;;;17.00;16.33;;;;;;;;4980417;28;45452;-59
2022/08/18 00:35:05;;;;;;;;;15.67;15.00;;;;;;;;4996649;28;45393;-61
2022/08/18 00:37:30;;;;;;;;;14.00;13.67;;;;;;;;4996694;28;45332;-59
2022/08/18 00:39:55;;;;;;;;;12.67;12.33;;;;;;;;4986385;28;45603;-60
2022/08/18 00:42:25;;;;;;;;;15.67;15.67;;;;;;;;4976852;28;45369;-60
2022/08/18 00:44:50;;;;;;;;;17.00;15.67;;;;;;;;4992701;28;45467;-61
2022/08/18 00:47:15;;;;;;;;;16.33;16.33;;;;;;;;4996521;28;45356;-60
2022/08/18 00:49:42;;;;;;;;;14.00;14.00;;;;;;;;4996053;28;45495;-59
2022/08/18 00:52:08;;;;;;;;;17.33;16.00;;;;;;;;4996350;28;46287;-60
2022/08/18 00:54:34;;;;;;;;;13.67;13.33;;;;;;;;4996242;28;45952;-59
2022/08/18 00:57:02;;;;;;;;;15.50;15.50;;;;;;;;4985690;28;45354;-60
2022/08/18 00:59:27;;;;;;;;;14.33;13.33;;;;;;;;4976544;28;45400;-58
2022/08/18 01:01:54;;;;;;;;;16.00;16.00;;;;;;;;4976770;28;45530;-59
2022/08/18 01:04:40;;;;;;;;;17.33;14.67;;;;;;;;4977325;28;45578;-61
2022/08/18 01:07:29;;;;;;;;;15.67;15.33;;;;;;;;4976336;28;45564;-59
2022/08/18 01:09:58;;;;;;;;;10.00;10.00;;;;;;;;4976696;28;45610;-61
2022/08/18 01:12:24;;;;;;;;;18.00;17.00;;;;;;;;4958366;28;45483;-60
2022/08/18 01:14:49;;;;;;;;;13.67;13.67;;;;;;;;4994307;28;45471;-59
2022/08/18 01:22:49;;;;;;;;;15.00;15.00;;;;;;;;4996126;28;45400;-59
2022/08/18 01:28:02;;;;;;;;;16.67;16.67;;;;;;;;4977185;28;45357;-60
2022/08/18 01:30:28;;;;;;;;;18.00;16.33;;;;;;;;4995927;28;45472;-59
2022/08/18 01:32:53;;;;;;;;;19.00;17.67;;;;;;;;4995898;28;46280;-58
2022/08/18 01:35:20;;;;;;;;;22.33;20.33;;;;;;;;4996077;28;45304;-61
2022/08/18 01:37:45;;;;;;;;;17.33;17.33;;;;;;;;4996143;28;45451;-61
2022/08/18 01:40:11;;;;;;;;;17.00;17.00;;;;;;;;4981682;28;45476;-61
2022/08/18 01:42:37;;;;;;;;;17.33;16.33;;;;;;;;4979853;28;45546;-59
2022/08/18 01:45:04;;;;;;;;;17.00;17.00;;;;;;;;4979680;28;45472;-58
2022/08/18 01:47:31;;;;;;;;;18.67;17.67;;;;;;;;4962245;28;45390;-60
2022/08/18 01:49:57;;;;;;;;;18.00;15.67;;;;;;;;4979727;28;45381;-60
2022/08/18 01:52:22;;;;;;;;;13.67;13.67;;;;;;;;4979448;28;45366;-61
2022/08/18 01:54:47;;;;;;;;;17.67;17.67;;;;;;;;4979566;28;45362;-61
2022/08/18 01:57:14;;;;;;;;;18.33;17.00;;;;;;;;4983719;28;45852;-60
2022/08/18 01:59:40;;;;;;;;;17.33;17.33;;;;;;;;4998990;28;45382;-60
2022/08/18 02:02:06;;;;;;;;;20.33;19.00;;;;;;;;4981347;28;46596;-61
2022/08/18 02:04:32;;;;;;;;;19.67;18.67;;;;;;;;4999582;28;45474;-61
2022/08/18 02:06:58;;;;;;;;;18.00;18.00;;;;;;;;4999119;28;45526;-59
2022/08/18 02:09:23;;;;;;;;;18.33;17.00;;;;;;;;4999282;28;45482;-61
2022/08/18 02:11:48;;;;;;;;;19.33;18.00;;;;;;;;4997285;28;46454;-60
2022/08/18 02:14:14;;;;;;;;;17.00;16.00;;;;;;;;4999042;28;45524;-61
2022/08/18 02:16:39;;;;;;;;;18.67;17.33;;;;;;;;4999074;28;45363;-61
2022/08/18 02:19:04;;;;;;;;;19.00;19.00;;;;;;;;4998918;28;45380;-60
2022/08/18 02:21:29;;;;;;;;;17.33;17.00;;;;;;;;4998745;28;45405;-61
2022/08/18 02:23:54;;;;;;;;;22.00;19.00;;;;;;;;4992822;28;45418;-59
2022/08/18 02:26:20;;;;;;;;;21.33;17.67;;;;;;;;4979032;28;45456;-59
2022/08/18 02:28:46;;;;;;;;;18.00;18.00;;;;;;;;4978819;28;45652;-61
2022/08/18 02:31:13;;;;;;;;;15.67;15.67;;;;;;;;4998441;28;45390;-60
2022/08/18 02:33:38;;;;;;;;;19.00;13.33;;;;;;;;4998621;28;45400;-59
2022/08/18 02:36:05;;;;;;;;;17.00;17.00;;;;;;;;4998724;28;45368;-59
2022/08/18 02:38:31;;;;;;;;;16.00;15.00;;;;;;;;4998849;28;45473;-61
2022/08/18 02:40:57;;;;;;;;;14.33;14.33;;;;;;;;4998268;28;45360;-59
2022/08/18 02:43:22;;;;;;;;;15.00;14.67;;;;;;;;4981859;28;45520;-59
2022/08/18 02:45:48;;;;;;;;;15.00;13.75;;;;;;;;4979047;28;45471;-58
2022/08/18 02:48:13;;;;;;;;;15.33;15.00;;;;;;;;4962291;28;45443;-61
2022/08/18 02:50:47;;;;;;;;;14.00;14.00;;;;;;;;4978501;28;45530;-61
2022/08/18 02:53:20;;;;;;;;;15.00;14.00;;;;;;;;4978514;28;45373;-58
2022/08/18 02:55:45;;;;;;;;;15.00;15.00;;;;;;;;4978709;28;45441;-59
2022/08/18 02:58:12;;;;;;;;;13.00;13.00;;;;;;;;4978774;28;45382;-58
2022/08/18 03:00:37;;;;;;;;;14.00;12.33;;;;;;;;4960862;28;45472;-61
2022/08/18 03:03:03;;;;;;;;;12.00;11.67;;;;;;;;4979479;28;45411;-61
2022/08/18 03:05:29;;;;;;;;;14.67;14.33;;;;;;;;4979018;28;45448;-60
2022/08/18 03:07:54;;;;;;;;;15.67;14.00;;;;;;;;4978548;28;45282;-58
2022/08/18 03:10:19;;;;;;;;;11.33;11.33;;;;;;;;4978445;28;45422;-59
2022/08/18 03:12:44;;;;;;;;;13.33;13.33;;;;;;;;4978594;28;45604;-61
2022/08/18 03:15:11;;;;;;;;;12.33;12.00;;;;;;;;4978424;28;45491;-59
2022/08/18 03:17:37;;;;;;;;;12.33;12.33;;;;;;;;4993033;28;45435;-59
2022/08/18 03:20:02;;;;;;;;;15.00;14.00;;;;;;;;4997547;28;45391;-60
2022/08/18 03:22:28;;;;;;;;;16.00;16.00;;;;;;;;4997854;28;45395;-61
2022/08/18 03:24:53;;;;;;;;;17.00;16.00;;;;;;;;4998058;28;45388;-59
2022/08/18 03:27:18;;;;;;;;;14.00;14.00;;;;;;;;4997772;28;45537;-59
2022/08/18 03:29:43;;;;;;;;;12.00;12.00;;;;;;;;4997893;28;45344;-60
2022/08/18 03:32:09;;;;;;;;;14.00;13.00;;;;;;;;4992143;28;45501;-60
2022/08/18 03:34:34;;;;;;;;;12.67;12.33;;;;;;;;4997700;28;45622;-60
2022/08/18 03:36:59;;;;;;;;;12.33;11.67;;;;;;;;4997526;28;45568;-59
2022/08/18 03:39:26;;;;;;;;;13.00;13.00;;;;;;;;4979835;28;47139;-59
2022/08/18 03:41:56;;;;;;;;;15.00;13.33;;;;;;;;4991054;28;45541;-59
2022/08/18 03:44:22;;;;;;;;;13.33;13.33;;;;;;;;4978017;28;45479;-61
2022/08/18 03:46:49;;;;;;;;;13.33;12.33;;;;;;;;4989431;28;45537;-60
2022/08/18 03:49:14;;;;;;;;;15.00;15.00;;;;;;;;4997245;28;46036;-59
2022/08/18 03:51:47;;;;;;;;;11.50;11.00;;;;;;;;4995681;28;45416;-61
2022/08/18 03:54:15;;;;;;;;;16.75;15.25;;;;;;;;4997627;28;45458;-60
2022/08/18 03:56:40;;;;;;;;;12.50;10.75;;;;;;;;4997362;28;45415;-61
2022/08/18 03:59:08;;;;;;;;;10.00;9.00;;;;;;;;4997216;28;47055;-59
2022/08/18 04:01:38;;;;;;;;;11.25;10.00;;;;;;;;4979542;28;45383;-60
2022/08/18 04:04:03;;;;;;;;;12.33;12.33;;;;;;;;4978221;28;45412;-61
2022/08/18 04:06:33;;;;;;;;;13.67;12.67;;;;;;;;4997812;28;45504;-60
2022/08/18 04:09:00;;;;;;;;;12.00;12.00;;;;;;;;4997107;28;45511;-60
2022/08/18 04:11:27;;;;;;;;;13.00;13.00;;;;;;;;4978879;28;45522;-60
2022/08/18 04:13:53;;;;;;;;;15.00;14.00;;;;;;;;4997288;28;45415;-61
2022/08/18 04:16:19;;;;;;;;;11.75;11.25;;;;;;;;4996982;28;45424;-60
2022/08/18 04:18:44;;;;;;;;;17.00;15.00;;;;;;;;4984373;28;45329;-61
2022/08/18 04:21:12;;;;;;;;;13.67;13.67;;;;;;;;4988077;28;45432;-61
2022/08/18 04:23:38;;;;;;;;;14.00;13.00;;;;;;;;4997223;28;45487;-59
2022/08/18 04:26:04;;;;;;;;;15.33;15.00;;;;;;;;4996908;28;45371;-60
2022/08/18 04:28:30;;;;;;;;;10.50;9.50;;;;;;;;4996808;28;45431;-59
2022/08/18 04:30:58;;;;;;;;;12.33;12.33;;;;;;;;4996938;28;45425;-59
2022/08/18 04:33:25;;;;;;;;;13.33;13.33;;;;;;;;4996836;28;45372;-59
2022/08/18 04:35:50;;;;;;;;;11.25;11.25;;;;;;;;4987594;28;45604;-60
2022/08/18 04:38:15;;;;;;;;;15.00;13.67;;;;;;;;4987811;28;46356;-61
2022/08/18 04:40:41;;;;;;;;;12.67;12.33;;;;;;;;4996564;28;45470;-59
2022/08/18 04:43:10;;;;;;;;;15.67;14.67;;;;;;;;4996739;28;45484;-62
2022/08/18 04:45:38;;;;;;;;;12.25;11.50;;;;;;;;4993079;28;45534;-59
2022/08/18 04:48:04;;;;;;;;;12.75;12.50;;;;;;;;4991248;28;46069;-61
2022/08/18 04:50:29;;;;;;;;;14.33;14.33;;;;;;;;4994039;28;45364;-59
2022/08/18 04:55:38;;;;;;;;;11.50;11.25;;;;;;;;4996059;28;45357;-61
2022/08/18 04:58:03;;;;;;;;;10.33;10.33;;;;;;;;4996208;28;45499;-62
2022/08/18 05:00:28;;;;;;;;;8.67;8.67;;;;;;;;4995955;28;45295;-60
2022/08/18 05:02:55;;;;;;;;;12.33;11.33;;;;;;;;4994394;28;45476;-60
2022/08/18 05:05:20;;;;;;;;;11.33;11.33;;;;;;;;4977538;28;45552;-60
2022/08/18 05:07:46;;;;;;;;;12.33;12.33;;;;;;;;4996103;28;45424;-59
2022/08/18 05:10:11;;;;;;;;;11.75;11.75;;;;;;;;4988850;28;45487;-59
2022/08/18 05:12:40;;;;;;;;;14.00;12.67;;;;;;;;4976422;28;45429;-58
2022/08/18 05:15:05;;;;;;;;;14.33;14.33;;;;;;;;4982351;28;45646;-60
2022/08/18 05:17:31;;;;;;;;;13.67;13.67;;;;;;;;4997763;28;48074;-59
2022/08/18 05:19:57;;;;;;;;;18.00;18.00;;;;;;;;4999383;28;45657;-61
2022/08/18 05:22:22;;;;;;;;;11.67;11.67;;;;;;;;4999677;28;45413;-59
2022/08/18 05:24:47;;;;;;;;;13.00;12.00;;;;;;;;4999770;28;45435;-61
2022/08/18 05:27:13;;;;;;;;;11.00;11.00;;;;;;;;4999193;28;45492;-61
2022/08/18 05:29:38;;;;;;;;;15.67;13.67;;;;;;;;4999574;28;45352;-59
2022/08/18 05:32:06;;;;;;;;;13.67;12.67;;;;;;;;4999442;28;45443;-59
2022/08/18 05:34:32;;;;;;;;;10.67;10.67;;;;;;;;4999490;28;45448;-60
2022/08/18 05:37:16;;;;;;;;;14.00;12.00;;;;;;;;4998584;28;45397;-59
2022/08/18 05:39:51;;;;;;;;;15.33;14.00;;;;;;;;4995055;28;45352;-60
2022/08/18 05:42:18;;;;;;;;;13.00;13.00;;;;;;;;4987903;28;45419;-62
2022/08/18 05:44:45;;;;;;;;;10.67;10.00;;;;;;;;4999287;28;45400;-60
2022/08/18 05:47:12;;;;;;;;;13.00;13.00;;;;;;;;4984262;28;47187;-60
2022/08/18 05:49:38;;;;;;;;;12.33;12.33;;;;;;;;5000238;28;45479;-59
2022/08/18 05:52:06;;;;;;;;;14.67;14.67;;;;;;;;4981555;28;45378;-60
2022/08/18 05:57:31;;;;;;;;;18.33;16.67;;;;;;;;4986776;28;45819;-59
2022/08/18 05:59:56;;;;;;;;;17.67;13.67;;;;;;;;4984964;28;45632;-60
2022/08/18 06:02:37;;;;;;;;;15.00;14.00;;;;;;;;4988402;28;45448;-60
2022/08/18 06:05:06;;;;;;;;;14.33;14.33;;;;;;;;4999624;28;45574;-62
2022/08/18 06:07:31;;;;;;;;;16.33;16.33;;;;;;;;4998233;28;46218;-61
2022/08/18 06:09:56;;;;;;;;;15.67;15.00;;;;;;;;4998640;28;45391;-60
2022/08/18 06:12:32;;;;;;;;;14.33;14.33;;;;;;;;4998892;28;45382;-60
2022/08/18 06:15:03;;;;;;;;;21.00;16.67;;;;;;;;4998597;28;45384;-60
2022/08/18 06:17:38;;;;;;;;;14.00;14.00;;;;;;;;4998340;28;45422;-60
2022/08/18 06:20:13;;;;;;;;;13.00;13.00;;;;;;;;4994814;28;45512;-62
2022/08/18 06:22:55;;;;;;;;;14.33;14.00;;;;;;;;4980893;28;45469;-60
2022/08/18 06:25:26;;;;;;;;;16.67;16.33;;;;;;;;4998501;28;45559;-60
2022/08/18 06:27:54;;;;;;;;;17.67;17.00;;;;;;;;4978462;28;45328;-59
2022/08/18 06:30:31;;;;;;;;;16.00;15.33;;;;;;;;4982102;28;45531;-60
2022/08/18 06:33:06;;;;;;;;;18.67;17.33;;;;;;;;4960926;28;45450;-59
2022/08/18 06:35:34;;;;;;;;;16.33;16.33;;;;;;;;4978827;28;45462;-59
2022/08/18 06:41:01;;;;;;;;;23.00;19.33;;;;;;;;4978553;28;45532;-60
2022/08/18 06:43:28;;;;;;;;;20.67;20.67;;;;;;;;4978620;28;45503;-61
2022/08/18 06:45:53;;;;;;;;;24.00;23.00;;;;;;;;4978645;28;45572;-59
2022/08/18 06:48:34;;;;;;;;;27.00;26.33;;;;;;;;4978246;28;45471;-59
2022/08/18 06:51:01;;;;;;;;;23.67;21.67;;;;;;;;4978489;28;45395;-59
2022/08/18 06:53:45;;;;;;;;;20.33;20.33;;;;;;;;4960936;28;45525;-59
2022/08/18 06:56:21;;;;;;;;;25.00;24.00;;;;;;;;4978429;28;45476;-59
2022/08/18 06:58:47;;;;;;;;;20.33;20.00;;;;;;;;4978270;28;45453;-60
2022/08/18 07:01:12;;;;;;;;;31.33;25.00;;;;;;;;4978074;28;45461;-60
2022/08/18 07:03:42;;;;;;;;;24.67;24.67;;;;;;;;4978136;28;45406;-60
2022/08/18 07:06:20;;;;;;;;;21.67;19.67;;;;;;;;4978891;28;45429;-58
2022/08/18 07:08:46;;;;;;;;;26.67;24.67;;;;;;;;4978317;28;46120;-59
2022/08/18 07:11:27;;;;;;;;;27.33;27.33;;;;;;;;4978221;28;45785;-59
2022/08/18 07:13:54;;;;;;;;;25.67;24.67;;;;;;;;4978424;28;45477;-60
2022/08/18 07:16:28;;;;;;;;;28.00;25.67;;;;;;;;4978346;28;45443;-58
2022/08/18 07:18:54;;;;;;;;;27.67;26.33;;;;;;;;4977916;28;45472;-59
2022/08/18 07:21:27;;;;;;;;;28.00;25.67;;;;;;;;4978013;28;45438;-61
2022/08/18 07:24:01;;;;;;;;;23.67;23.67;;;;;;;;4978133;28;45389;-59
2022/08/18 07:26:26;;;;;;;;;19.33;18.67;;;;;;;;4977953;28;45377;-59
2022/08/18 07:28:52;;;;;;;;;30.67;29.33;;;;;;;;4977925;28;46210;-59
2022/08/18 07:31:33;;;;;;;;;36.67;33.00;;;;;;;;4977963;28;45520;-59
2022/08/18 07:34:02;;;;;;;;;32.33;31.00;;;;;;;;4978032;28;45381;-59
2022/08/18 07:36:30;;;;;;;;;34.00;31.33;;;;;;;;4977776;28;45599;-59
2022/08/18 07:39:06;;;;;;;;;35.33;33.67;;;;;;;;4976718;28;46182;-60
2022/08/18 07:41:31;;;;;;;;;40.00;35.67;;;;;;;;4977460;28;45436;-59
2022/08/18 07:43:56;;;;;;;;;43.00;35.00;;;;;;;;4978105;28;45538;-60
2022/08/18 07:46:34;;;;;;;;;36.67;33.67;;;;;;;;4978005;28;45444;-60
2022/08/18 07:48:59;;;;;;;;;42.33;34.67;;;;;;;;4977291;28;46973;-60
2022/08/18 07:51:31;;;;;;;;;37.67;32.67;;;;;;;;4977394;28;45467;-60
2022/08/18 07:54:15;;;;;;;;;37.33;34.33;;;;;;;;4977774;28;45414;-60
2022/08/18 07:56:51;;;;;;;;;35.00;30.33;;;;;;;;4977700;28;45457;-60
2022/08/18 07:59:25;;;;;;;;;33.67;32.33;;;;;;;;4977537;28;45469;-59
2022/08/18 08:02:02;;;;;;;;;40.00;35.00;;;;;;;;4977267;28;45489;-59
2022/08/18 08:04:47;;;;;;;;;31.00;30.00;;;;;;;;4977559;28;45433;-60
2022/08/18 08:07:19;;;;;;;;;41.33;32.33;;;;;;;;4977610;28;45394;-59
2022/08/18 08:09:51;;;;;;;;;33.33;31.33;;;;;;;;4959760;28;46225;-59
2022/08/18 08:12:35;;;;;;;;;26.33;25.00;;;;;;;;4977223;28;45495;-60
2022/08/18 08:15:11;;;;;;;;;30.00;28.67;;;;;;;;4977371;28;45498;-60
2022/08/18 08:17:48;;;;;;;;;30.33;30.33;;;;;;;;4977166;28;45414;-59
2022/08/18 08:20:20;;;;;;;;;32.33;30.00;;;;;;;;4977067;28;45440;-59
2022/08/18 08:23:06;;;;;;;;;30.67;27.00;;;;;;;;4977220;28;45449;-60
2022/08/18 08:25:34;;;;;;;;;33.33;30.00;;;;;;;;4977114;28;45395;-59
2022/08/18 08:28:06;;;;;;;;;32.00;31.00;;;;;;;;4977084;28;45290;-59
2022/08/18 08:30:33;;;;;;;;;34.67;31.00;;;;;;;;4977094;28;45501;-59
2022/08/18 08:33:14;;;;;;;;;33.33;30.67;;;;;;;;4977080;28;45390;-59
2022/08/18 08:35:49;;;;;;;;;32.00;30.00;;;;;;;;4977074;28;45497;-59
2022/08/18 08:38:18;;;;;;;;;28.33;28.33;;;;;;;;4976822;28;45365;-59
2022/08/18 08:40:43;;;;;;;;;37.00;32.33;;;;;;;;4976585;28;46530;-58
2022/08/18 08:43:29;;;;;;;;;32.67;30.33;;;;;;;;4977182;28;45515;-58
2022/08/18 08:46:04;;;;;;;;;29.33;25.67;;;;;;;;4958382;28;45394;-59
2022/08/18 08:48:31;;;;;;;;;29.33;28.33;;;;;;;;4958900;28;45492;-60
2022/08/18 08:50:58;;;;;;;;;32.67;30.67;;;;;;;;4976356;28;46125;-59
2022/08/18 08:53:26;;;;;;;;;37.00;33.00;;;;;;;;4976479;28;45484;-58
2022/08/18 08:55:58;;;;;;;;;33.33;31.00;;;;;;;;4976832;28;45449;-60
2022/08/18 08:58:27;;;;;;;;;33.33;32.00;;;;;;;;4976860;28;45491;-61
2022/08/18 09:00:52;;;;;;;;;38.00;33.00;;;;;;;;4976328;28;46238;-61
2022/08/18 09:03:36;;;;;;;;;37.00;34.00;;;;;;;;4976138;28;45421;-60
2022/08/18 09:06:08;;;;;;;;;33.67;32.33;;;;;;;;4977192;28;45397;-59
2022/08/18 09:08:40;;;;;;;;;36.00;33.00;;;;;;;;4958612;28;45635;-60
2022/08/18 09:11:15;;;;;;;;;31.00;30.00;;;;;;;;4975888;28;45426;-58
2022/08/18 09:13:40;;;;;;;;;33.67;30.33;;;;;;;;4976226;28;45398;-58
2022/08/18 09:16:12;;;;;;;;;27.00;25.33;;;;;;;;4976034;28;45327;-59
2022/08/18 09:18:43;;;;;;;;;27.67;26.00;;;;;;;;4976431;28;45450;-59
2022/08/18 09:21:27;;;;;;;;;30.00;29.33;;;;;;;;4975976;28;45441;-58
2022/08/18 09:23:54;;;;;;;;;34.33;30.33;;;;;;;;4976462;28;45480;-60
2022/08/18 09:26:21;;;;;;;;;28.33;28.33;;;;;;;;4976494;28;45507;-59
2022/08/18 09:28:56;;;;;;;;;33.33;30.33;;;;;;;;4976161;28;45508;-58
2022/08/18 09:31:22;;;;;;;;;33.00;30.00;;;;;;;;4976039;28;46068;-59
2022/08/18 09:33:57;;;;;;;;;30.33;30.00;;;;;;;;4976276;28;45478;-58
2022/08/18 09:36:41;;;;;;;;;28.00;27.00;;;;;;;;4976315;28;45412;-59
2022/08/18 09:42:01;;;;;;;;;28.67;25.00;;;;;;;;4975903;28;45424;-58
2022/08/18 09:44:44;;;;;;;;;29.33;29.00;;;;;;;;4976221;28;45607;-59
2022/08/18 09:47:10;;;;;;;;;29.67;28.33;;;;;;;;4976381;28;45452;-59
2022/08/18 09:49:40;;;;;;;;;31.00;26.67;;;;;;;;4975898;28;45409;-58
2022/08/18 09:52:21;;;;;;;;;23.67;23.67;;;;;;;;4975949;28;45350;-59
2022/08/18 09:54:58;;;;;;;;;28.33;26.33;;;;;;;;4976004;28;45377;-58
2022/08/18 09:57:26;;;;;;;;;28.00;25.67;;;;;;;;4976011;28;45460;-59
2022/08/18 09:59:56;;;;;;;;;25.33;25.33;;;;;;;;4975802;28;45417;-58
2022/08/18 10:02:27;;;;;;;;;23.67;23.67;;;;;;;;4959602;28;45450;-59
2022/08/18 10:05:11;;;;;;;;;25.67;25.67;;;;;;;;4979196;28;45485;-58
2022/08/18 10:07:41;;;;;;;;;31.67;30.00;;;;;;;;4979678;28;45419;-58
2022/08/18 10:10:07;;;;;;;;;25.33;24.00;;;;;;;;4978896;28;45434;-59
2022/08/18 10:12:50;;;;;;;;;28.67;24.33;;;;;;;;4978680;28;45440;-60
2022/08/18 10:15:34;;;;;;;;;24.00;21.33;;;;;;;;4961324;28;45411;-58
2022/08/18 10:18:08;;;;;;;;;22.00;20.00;;;;;;;;4978754;28;45380;-59
2022/08/18 10:20:40;;;;;;;;;25.00;23.67;;;;;;;;4978860;28;45480;-59
2022/08/18 10:23:06;;;;;;;;;21.33;21.33;;;;;;;;4978692;28;45447;-59
2022/08/18 10:25:31;;;;;;;;;25.33;22.00;;;;;;;;4978981;28;45600;-58
2022/08/18 10:27:56;;;;;;;;;20.00;19.00;;;;;;;;4978864;28;45485;-59
2022/08/18 10:30:28;;;;;;;;;23.00;22.00;;;;;;;;4979257;28;45476;-60
2022/08/18 10:32:53;;;;;;;;;22.00;22.00;;;;;;;;4978611;28;45399;-59
2022/08/18 10:35:33;;;;;;;;;18.67;18.00;;;;;;;;4978354;28;45374;-59
2022/08/18 10:38:00;;;;;;;;;22.00;19.67;;;;;;;;4978591;28;45498;-59
2022/08/18 10:40:26;;;;;;;;;25.67;22.67;;;;;;;;4978447;28;45401;-60
2022/08/18 10:42:51;;;;;;;;;18.67;17.33;;;;;;;;4978034;28;47009;-60
2022/08/18 10:45:19;;;;;;;;;18.00;17.00;;;;;;;;4978549;28;45555;-59
2022/08/18 10:47:57;;;;;;;;;18.75;18.75;;;;;;;;4978497;28;45418;-59
2022/08/18 10:50:25;;;;;;;;;20.33;20.00;;;;;;;;4977833;28;45548;-60
2022/08/18 10:53:00;;;;;;;;;17.50;17.50;;;;;;;;4977636;28;45410;-59
2022/08/18 10:55:25;;;;;;;;;18.50;18.50;;;;;;;;4977736;28;45473;-59
2022/08/18 10:57:51;;;;;;;;;20.75;20.00;;;;;;;;4978378;28;45552;-60
2022/08/18 11:00:18;;;;;;;;;19.00;18.00;;;;;;;;4978104;28;45485;-61
2022/08/18 11:03:08;;;;;;;;;14.50;14.50;;;;;;;;4997394;28;45457;-60
2022/08/18 11:05:34;;;;;;;;;16.50;16.50;;;;;;;;4987720;28;45347;-61
2022/08/18 11:08:11;;;;;;;;;19.00;18.25;;;;;;;;4998362;28;45424;-61
2022/08/18 11:10:39;;;;;;;;;32.00;31.00;;;;;;;;4992047;28;45337;-61
2022/08/18 11:13:23;;;;;;;;;16.25;16.25;;;;;;;;4995366;28;45497;-61
2022/08/18 11:16:08;;;;;;;;;19.75;18.00;;;;;;;;4987592;28;45381;-61
2022/08/18 11:18:34;;;;;;;;;16.50;14.75;;;;;;;;4977845;28;45403;-61
2022/08/18 11:21:18;;;;;;;;;16.50;15.25;;;;;;;;4977703;28;45382;-62
2022/08/18 11:23:43;;;;;;;;;16.25;15.00;;;;;;;;4980620;28;45558;-63
2022/08/18 11:26:15;;;;;;;;;20.50;18.50;;;;;;;;4985270;28;45559;-63
2022/08/18 11:28:40;;;;;;;;;21.67;19.67;;;;;;;;4991035;28;45444;-63
2022/08/18 11:31:06;;;;;;;;;17.25;16.00;;;;;;;;4990750;28;45401;-60
2022/08/18 11:33:31;;;;;;;;;16.25;14.50;;;;;;;;4995770;28;45772;-60
2022/08/18 11:35:58;;;;;;;;;16.50;16.00;;;;;;;;4996728;28;45441;-61
2022/08/18 11:38:23;;;;;;;;;18.25;17.50;;;;;;;;4997224;28;45451;-62
2022/08/18 11:40:51;;;;;;;;;16.00;16.00;;;;;;;;4979385;28;45461;-65
2022/08/18 11:43:26;;;;;;;;;16.33;16.33;;;;;;;;4996792;28;46181;-61
2022/08/18 11:46:00;;;;;;;;;15.50;15.50;;;;;;;;4996073;28;45532;-58
2022/08/18 11:48:41;;;;;;;;;17.25;16.00;;;;;;;;4977120;28;45393;-59
2022/08/18 11:51:09;;;;;;;;;14.00;11.50;;;;;;;;4977350;28;45390;-59
2022/08/18 11:53:50;;;;;;;;;11.50;10.50;;;;;;;;4977131;28;45393;-60
2022/08/18 11:56:16;;;;;;;;;12.75;11.25;;;;;;;;4977192;28;45417;-60
2022/08/18 11:58:44;;;;;;;;;13.00;12.50;;;;;;;;4977390;28;45466;-59
2022/08/18 12:01:10;;;;;;;;;10.00;10.00;;;;;;;;4958935;28;45559;-60
2022/08/18 12:03:35;;;;;;;;;14.50;14.00;;;;;;;;4977063;28;45345;-61
2022/08/18 12:06:09;;;;;;;;;12.75;12.75;;;;;;;;4978082;28;45465;-60
2022/08/18 12:08:37;;;;;;;;;12.00;11.00;;;;;;;;4977568;28;45519;-61
2022/08/18 12:11:23;;;;;;;;;9.75;9.75;;;;;;;;4977560;28;45441;-60
2022/08/18 12:13:56;;;;;;;;;13.50;12.00;;;;;;;;4977249;28;46129;-61
2022/08/18 12:16:32;;;;;;;;;10.50;10.50;;;;;;;;4977269;28;45378;-60
2022/08/18 12:18:58;;;;;;;;;12.00;12.00;;;;;;;;4977299;28;45448;-60
2022/08/18 12:21:23;;;;;;;;;11.25;11.25;;;;;;;;4977283;28;45373;-60
2022/08/18 12:23:48;;;;;;;;;11.00;10.25;;;;;;;;4976517;28;45418;-60
2022/08/18 12:26:13;;;;;;;;;11.00;9.00;;;;;;;;4976499;28;45442;-60
2022/08/18 12:28:39;;;;;;;;;9.50;9.50;;;;;;;;4977328;28;45395;-60
2022/08/18 12:31:05;;;;;;;;;12.00;10.50;;;;;;;;4977171;28;45557;-60
2022/08/18 12:33:30;;;;;;;;;10.25;10.25;;;;;;;;4976976;28;46293;-60
2022/08/18 12:35:55;;;;;;;;;11.00;9.75;;;;;;;;4959340;28;45769;-60
2022/08/18 12:38:22;;;;;;;;;9.75;9.75;;;;;;;;4977018;28;45450;-59
2022/08/18 12:40:47;;;;;;;;;10.50;8.50;;;;;;;;4959180;28;45530;-60
2022/08/18 12:43:12;;;;;;;;;9.50;9.50;;;;;;;;4976543;28;46039;-60
2022/08/18 12:45:37;;;;;;;;;6.75;6.75;;;;;;;;4977062;28;45338;-59
2022/08/18 12:48:03;;;;;;;;;9.25;8.25;;;;;;;;4977197;28;45397;-59
2022/08/18 12:50:28;;;;;;;;;10.00;10.00;;;;;;;;4976658;28;45370;-59
2022/08/18 12:52:53;;;;;;;;;10.50;10.50;;;;;;;;4976643;28;45491;-60
2022/08/18 12:55:18;;;;;;;;;15.25;12.00;;;;;;;;4976706;28;45524;-59
2022/08/18 12:57:44;;;;;;;;;8.50;8.50;;;;;;;;4976819;28;45341;-60
2022/08/18 13:00:09;;;;;;;;;12.25;11.50;;;;;;;;4976810;28;45344;-59
2022/08/18 13:02:34;;;;;;;;;9.25;8.25;;;;;;;;4976539;28;45370;-59
2022/08/18 13:05:00;;;;;;;;;13.50;12.00;;;;;;;;4959271;28;45390;-60
2022/08/18 13:07:25;;;;;;;;;10.25;10.25;;;;;;;;4977570;28;45311;-60
2022/08/18 13:09:50;;;;;;;;;11.25;10.50;;;;;;;;4976708;28;45322;-60
2022/08/18 13:12:16;;;;;;;;;10.00;10.00;;;;;;;;4958835;28;45597;-60
2022/08/18 13:14:41;;;;;;;;;11.50;10.25;;;;;;;;4976695;28;45744;-60
2022/08/18 13:17:06;;;;;;;;;9.50;8.25;;;;;;;;4976769;28;45483;-61
2022/08/18 13:19:32;;;;;;;;;8.00;8.00;;;;;;;;4976712;28;45627;-62
2022/08/18 13:21:57;;;;;;;;;12.00;9.25;;;;;;;;4976351;28;46010;-62
2022/08/18 13:24:22;;;;;;;;;11.50;11.00;;;;;;;;4976377;28;45476;-61
2022/08/18 13:26:48;;;;;;;;;15.25;14.25;;;;;;;;4976420;28;45455;-62
2022/08/18 13:29:15;;;;;;;;;12.75;12.75;;;;;;;;4976346;28;45402;-61
2022/08/18 13:31:41;;;;;;;;;13.00;12.25;;;;;;;;4976097;28;45950;-62
2022/08/18 13:34:06;;;;;;;;;15.50;15.50;;;;;;;;4976387;28;45382;-60
2022/08/18 13:36:43;;;;;;;;;12.75;12.75;;;;;;;;4976474;28;45501;-59
2022/08/18 13:39:18;;;;;;;;;11.00;9.75;;;;;;;;4979764;28;45364;-58
2022/08/18 13:41:45;;;;;;;;;11.00;11.00;;;;;;;;4979436;28;45442;-59
2022/08/18 13:44:12;;;;;;;;;8.40;8.00;;;;;;;;4979692;28;45394;-59
2022/08/18 13:46:44;;;;;;;;;11.75;11.00;;;;;;;;4979627;28;45480;-59
2022/08/18 13:49:10;;;;;;;;;10.75;10.75;;;;;;;;4979212;28;45520;-59
2022/08/18 13:51:35;;;;;;;;;12.00;12.00;;;;;;;;4979392;28;45533;-60
2022/08/18 13:54:01;;;;;;;;;10.25;10.25;;;;;;;;4979569;28;45457;-60
2022/08/18 13:56:26;;;;;;;;;12.00;10.25;;;;;;;;4979639;28;45508;-59
2022/08/18 13:58:51;;;;;;;;;9.50;9.50;;;;;;;;4979409;28;45521;-60
2022/08/18 14:01:18;;;;;;;;;10.75;10.75;;;;;;;;4979085;28;46037;-60
2022/08/18 14:03:43;;;;;;;;;7.60;7.60;;;;;;;;4979337;28;45468;-60
2022/08/18 14:06:09;;;;;;;;;8.00;8.00;;;;;;;;4980213;28;45492;-60
2022/08/18 14:08:34;;;;;;;;;11.00;9.25;;;;;;;;4979236;28;45600;-60
2022/08/18 14:11:00;;;;;;;;;10.00;9.00;;;;;;;;4979068;28;45607;-59
2022/08/18 14:13:26;;;;;;;;;9.20;9.00;;;;;;;;4979183;28;45484;-59
2022/08/18 14:15:52;;;;;;;;;12.00;11.75;;;;;;;;4979352;28;45477;-60
2022/08/18 14:18:18;;;;;;;;;9.00;9.00;;;;;;;;4979056;28;45572;-60
2022/08/18 14:28:54;;;;;;;;;10.50;10.50;;;;;;;;4979088;28;45408;-59
2022/08/18 14:31:19;;;;;;;;;10.25;10.25;;;;;;;;4978841;28;45429;-59
2022/08/18 14:33:44;;;;;;;;;9.75;9.75;;;;;;;;4978941;28;45620;-59
2022/08/18 14:36:10;;;;;;;;;10.50;9.75;;;;;;;;4978974;28;45405;-59
2022/08/18 14:38:36;;;;;;;;;9.00;9.00;;;;;;;;4978823;28;45576;-60
2022/08/18 14:41:03;;;;;;;;;10.00;9.00;;;;;;;;4978617;28;45984;-59
2022/08/18 14:43:28;;;;;;;;;9.40;9.40;;;;;;;;4978546;28;45401;-59
2022/08/18 14:45:53;;;;;;;;;9.50;9.50;;;;;;;;4978713;28;45309;-59
2022/08/18 14:48:21;;;;;;;;;9.00;9.00;;;;;;;;4978104;28;45362;-59
2022/08/18 14:50:48;;;;;;;;;8.75;8.75;;;;;;;;4978254;28;45390;-60
2022/08/18 14:53:13;;;;;;;;;9.60;9.60;;;;;;;;4978324;28;45527;-60
2022/08/18 14:55:38;;;;;;;;;8.75;8.75;;;;;;;;4978637;28;45478;-60